Mutunopolis, Brazil
Current Conditions -  °F | °C
As of 5:00 AM on Friday 31 Oct 2014 (Local Time) from SBBR Reporting Station
Light Rain Light Rain  
Wind Chill: 68°   Ceiling: 10000
Heat Index: 68°   Visibility: 5mi
Dew Point: 63°   Wind: 6mph
Humidity: 83%   Direction: 220°SW
Pressure: 30.06"   Gusts: NA
Location:  13.73°S, 49.27°W
Report Text: SBBR 310700Z 22005KT 8000 -RA SCT020 BKN100 20/17 Q1018
Loading
Personal Weather Stations






























Interactive Weather Map
Tropical Storm Tracking
New forecast layout! Learn more

10-Day Weather Forecast

Advertisements
Track Severe Weather on mobile